Time;durP1;ratioP1;P1;durP2;ratioP2;P2;SDS_P1;SDS_P2;PMS_P1;PMS_P2;Temp;Humidity;BMP_temperature;BMP_pressure;BME280_temperature;BME280_humidity;BME280_pressure;Samples;Min_cycle;Max_cycle;Signal;HPM_P1;HPM_P2
2024/03/18 00:00:18;;;;;;;1248.17;999.90;;;9.80;99.90;;;;;;5052208;28;20498;-65
2024/03/18 00:02:45;;;;;;;1258.80;999.90;;;9.80;99.90;;;;;;5067252;28;20557;-65
2024/03/18 00:05:14;;;;;;;1311.10;999.90;;;9.80;99.90;;;;;;5055830;28;20462;-66
2024/03/18 00:07:40;;;;;;;1309.97;999.90;;;9.80;99.90;;;;;;5057899;28;20542;-65
2024/03/18 00:10:09;;;;;;;1303.47;999.90;;;9.80;99.90;;;;;;5070271;28;20949;-65
2024/03/18 00:12:37;;;;;;;1322.13;999.90;;;9.80;99.90;;;;;;5072073;28;20581;-65
2024/03/18 00:15:07;;;;;;;1318.17;999.90;;;9.80;99.90;;;;;;5063190;28;20466;-65
2024/03/18 00:17:35;;;;;;;1299.40;999.90;;;9.80;99.90;;;;;;5065532;28;20560;-65
2024/03/18 00:20:04;;;;;;;1306.50;999.90;;;9.80;99.90;;;;;;5071278;28;20486;-65
2024/03/18 00:22:31;;;;;;;1305.60;999.90;;;9.80;99.90;;;;;;5052113;28;20458;-65
2024/03/18 00:24:58;;;;;;;1282.77;999.90;;;9.80;99.90;;;;;;5052309;28;20461;-65
2024/03/18 00:27:24;;;;;;;1280.80;999.90;;;9.80;99.90;;;;;;5051857;28;20454;-65
2024/03/18 00:29:53;;;;;;;1286.90;999.90;;;9.70;99.90;;;;;;5068438;28;20451;-65
2024/03/18 00:32:19;;;;;;;1279.80;999.90;;;9.70;99.90;;;;;;5069343;28;20959;-65
2024/03/18 00:34:46;;;;;;;1296.03;999.90;;;9.70;99.90;;;;;;5052516;28;20458;-65
2024/03/18 00:37:13;;;;;;;1278.10;999.90;;;9.70;99.90;;;;;;5062394;28;20457;-65
2024/03/18 00:39:40;;;;;;;1243.53;999.90;;;9.70;99.90;;;;;;5071990;28;20484;-65
2024/03/18 00:42:06;;;;;;;1273.33;999.90;;;9.70;99.90;;;;;;5072096;28;20460;-64
2024/03/18 00:44:33;;;;;;;1273.60;999.90;;;9.70;99.90;;;;;;5059149;28;20562;-65
2024/03/18 00:47:02;;;;;;;1255.70;999.90;;;9.70;99.90;;;;;;5059679;28;20459;-65
2024/03/18 00:49:29;;;;;;;1282.00;999.90;;;9.70;99.90;;;;;;5060165;28;20451;-64
2024/03/18 00:51:56;;;;;;;1272.53;999.90;;;9.70;99.90;;;;;;5060085;28;20868;-65
2024/03/18 00:54:23;;;;;;;1270.50;999.90;;;9.70;99.90;;;;;;5059573;28;20479;-65
2024/03/18 00:56:50;;;;;;;1255.47;999.90;;;9.60;99.90;;;;;;5067063;28;20446;-65
2024/03/18 00:59:17;;;;;;;1252.63;999.90;;;9.70;99.90;;;;;;5060191;28;20502;-65
2024/03/18 01:01:44;;;;;;;1273.70;999.90;;;9.60;99.90;;;;;;5066419;28;20945;-65
2024/03/18 01:04:13;;;;;;;1277.57;999.90;;;9.60;99.90;;;;;;5071494;28;20990;-65
2024/03/18 01:06:40;;;;;;;1278.23;999.90;;;9.60;99.90;;;;;;5071774;28;20511;-66
2024/03/18 01:09:07;;;;;;;1268.27;999.90;;;9.60;99.90;;;;;;5058802;28;20510;-65
2024/03/18 01:11:34;;;;;;;1261.53;999.90;;;9.60;99.90;;;;;;5075354;28;20454;-66
2024/03/18 01:14:01;;;;;;;1190.87;999.90;;;9.60;99.90;;;;;;5066328;28;20470;-66
2024/03/18 01:16:27;;;;;;;1174.17;999.90;;;9.60;99.90;;;;;;5067895;28;20454;-65
2024/03/18 01:18:55;;;;;;;1187.50;999.90;;;9.60;99.90;;;;;;5075323;28;20486;-65
2024/03/18 01:21:24;;;;;;;1177.97;999.90;;;9.50;99.90;;;;;;5075469;28;20972;-66
2024/03/18 01:23:51;;;;;;;1192.07;999.90;;;9.50;99.90;;;;;;5075606;28;20472;-65
2024/03/18 01:26:19;;;;;;;1164.97;999.90;;;9.50;99.90;;;;;;5075210;28;20523;-66
2024/03/18 01:28:46;;;;;;;1168.73;999.90;;;9.60;99.90;;;;;;5068594;28;20451;-66
2024/03/18 01:31:13;;;;;;;1182.27;999.90;;;9.60;99.90;;;;;;5055323;28;20451;-65
2024/03/18 01:33:40;;;;;;;1164.43;999.90;;;9.60;99.90;;;;;;5063490;28;20470;-65
2024/03/18 01:36:06;;;;;;;1164.30;999.90;;;9.60;99.90;;;;;;5064667;28;20446;-65
2024/03/18 01:38:35;;;;;;;1165.17;999.90;;;9.60;99.90;;;;;;5075289;28;20545;-66
2024/03/18 01:41:02;;;;;;;1176.50;999.90;;;9.60;99.90;;;;;;5058027;28;20958;-66
2024/03/18 01:43:29;;;;;;;1169.87;999.90;;;9.50;99.90;;;;;;5055088;28;20540;-66
2024/03/18 01:45:56;;;;;;;1174.87;999.90;;;9.50;99.90;;;;;;5063262;28;20447;-65
2024/03/18 01:48:23;;;;;;;1166.33;999.90;;;9.60;99.90;;;;;;5058508;28;20484;-65
2024/03/18 01:50:50;;;;;;;1163.83;999.90;;;9.60;99.90;;;;;;5067401;28;20454;-65
2024/03/18 01:53:17;;;;;;;1171.90;999.90;;;9.60;99.90;;;;;;5066051;28;20557;-66
2024/03/18 01:55:45;;;;;;;1170.03;999.90;;;9.60;99.90;;;;;;5060174;28;20462;-65
2024/03/18 01:58:12;;;;;;;1152.80;999.90;;;9.50;99.90;;;;;;5070965;28;20449;-65
2024/03/18 02:00:41;;;;;;;1147.57;999.90;;;9.60;99.90;;;;;;5059334;28;20485;-65
2024/03/18 02:03:09;;;;;;;1152.23;999.90;;;9.60;99.90;;;;;;5071674;28;20469;-65
2024/03/18 02:05:36;;;;;;;1160.00;999.90;;;9.50;99.90;;;;;;5053726;28;20839;-65
2024/03/18 02:08:04;;;;;;;1144.27;999.90;;;9.50;99.90;;;;;;5062192;28;20976;-66
2024/03/18 02:10:31;;;;;;;1148.17;999.90;;;9.60;99.90;;;;;;5073509;28;20454;-66
2024/03/18 02:13:01;;;;;;;1144.00;999.90;;;9.60;99.90;;;;;;5073181;28;20484;-66
2024/03/18 02:15:28;;;;;;;1146.57;999.90;;;9.60;99.90;;;;;;5073350;28;20453;-65
2024/03/18 02:17:54;;;;;;;1142.30;999.90;;;9.60;99.90;;;;;;5072446;28;20450;-66
2024/03/18 02:20:21;;;;;;;1146.43;999.90;;;9.60;99.90;;;;;;5073202;28;20508;-65
2024/03/18 02:22:48;;;;;;;1154.27;999.90;;;9.60;99.90;;;;;;5066233;28;20486;-65
2024/03/18 02:25:15;;;;;;;1140.50;999.90;;;9.60;99.90;;;;;;5064052;28;20465;-66
2024/03/18 02:27:42;;;;;;;1140.23;999.90;;;9.60;99.90;;;;;;5058124;28;20517;-65
2024/03/18 02:30:10;;;;;;;1150.87;999.90;;;9.50;99.90;;;;;;5061056;28;20455;-65
2024/03/18 02:32:41;;;;;;;1139.67;999.90;;;9.60;99.90;;;;;;5067037;28;20532;-66
2024/03/18 02:35:10;;;;;;;1138.53;999.90;;;9.60;99.90;;;;;;5073320;28;20461;-66
2024/03/18 02:37:36;;;;;;;1119.10;999.90;;;9.50;99.90;;;;;;5072470;28;20456;-66
2024/03/18 02:40:08;;;;;;;1117.83;999.90;;;9.50;99.90;;;;;;5055326;28;20894;-66
2024/03/18 02:42:35;;;;;;;1116.40;999.90;;;9.50;99.90;;;;;;5058058;28;20457;-65
2024/03/18 02:45:03;;;;;;;1114.10;999.90;;;9.50;99.90;;;;;;5072602;28;20528;-66
2024/03/18 02:47:29;;;;;;;1110.10;998.00;;;9.60;99.90;;;;;;5072640;28;20454;-66
2024/03/18 02:49:56;;;;;;;1121.13;999.90;;;9.60;99.90;;;;;;5072656;28;20450;-66
2024/03/18 02:52:23;;;;;;;1135.80;999.90;;;9.60;99.90;;;;;;5056691;28;20840;-65
2024/03/18 02:54:50;;;;;;;1138.30;999.90;;;9.60;99.90;;;;;;5073249;28;20462;-66
2024/03/18 02:57:18;;;;;;;1147.53;999.90;;;9.60;99.90;;;;;;5061341;28;20470;-66
2024/03/18 02:59:45;;;;;;;1121.23;999.90;;;9.60;99.90;;;;;;5030388;28;1087907;-66
2024/03/18 03:02:12;;;;;;;1122.60;999.90;;;9.60;99.90;;;;;;5064210;28;20271;-66
2024/03/18 03:04:38;;;;;;;1124.70;999.90;;;9.60;99.90;;;;;;5067764;28;20480;-65
2024/03/18 03:07:04;;;;;;;1115.07;999.70;;;9.60;99.90;;;;;;5073113;28;20451;-66
2024/03/18 03:09:31;;;;;;;1133.13;999.90;;;9.60;99.90;;;;;;5060530;28;20490;-66
2024/03/18 03:11:58;;;;;;;1130.00;999.90;;;9.60;99.90;;;;;;5053142;28;20452;-65
2024/03/18 03:14:26;;;;;;;1128.27;999.90;;;9.60;99.90;;;;;;5057325;28;20936;-66
2024/03/18 03:16:53;;;;;;;1146.23;999.90;;;9.60;99.90;;;;;;5073234;28;20457;-66
2024/03/18 03:19:21;;;;;;;1128.80;999.90;;;9.60;99.90;;;;;;5073300;28;20906;-66
2024/03/18 03:21:48;;;;;;;1126.90;999.90;;;9.50;99.90;;;;;;5057929;28;20510;-65
2024/03/18 03:24:15;;;;;;;1127.73;999.90;;;9.50;99.90;;;;;;5071720;28;20845;-66
2024/03/18 03:26:42;;;;;;;1120.00;999.90;;;9.50;99.90;;;;;;5058529;28;20477;-65
2024/03/18 03:29:09;;;;;;;1143.07;999.90;;;9.50;99.90;;;;;;5054507;28;20481;-66
2024/03/18 03:31:37;;;;;;;1149.27;999.90;;;9.50;99.90;;;;;;5059185;28;20451;-66
2024/03/18 03:34:04;;;;;;;1131.70;999.90;;;9.50;99.90;;;;;;5070484;28;20857;-66
2024/03/18 03:36:33;;;;;;;1138.27;999.90;;;9.50;99.90;;;;;;5059564;28;20455;-65
2024/03/18 03:39:00;;;;;;;1140.07;999.90;;;9.60;99.90;;;;;;5060792;28;20451;-65
2024/03/18 03:41:27;;;;;;;1136.07;999.90;;;9.50;99.90;;;;;;5065464;28;20450;-66
2024/03/18 03:43:53;;;;;;;1128.03;999.90;;;9.60;99.90;;;;;;5072716;28;20474;-66
2024/03/18 03:46:20;;;;;;;1112.90;998.87;;;9.60;99.90;;;;;;5055873;28;20450;-66
2024/03/18 03:48:48;;;;;;;1129.27;999.90;;;9.60;99.90;;;;;;5065620;28;20460;-66
2024/03/18 03:51:15;;;;;;;1128.20;999.90;;;9.60;99.90;;;;;;5060652;28;20458;-66
2024/03/18 03:53:42;;;;;;;1120.97;999.90;;;9.60;99.90;;;;;;5052393;28;20482;-66
2024/03/18 03:56:09;;;;;;;1093.20;977.30;;;9.60;99.90;;;;;;5052865;28;20451;-63
2024/03/18 03:58:36;;;;;;;1133.20;999.90;;;9.60;99.90;;;;;;5060289;28;20978;-66
2024/03/18 04:01:03;;;;;;;1122.43;999.90;;;9.60;99.90;;;;;;5061553;28;20478;-66
2024/03/18 04:03:29;;;;;;;1109.20;996.73;;;9.60;99.90;;;;;;5072442;28;20499;-66
2024/03/18 04:05:57;;;;;;;1108.07;995.67;;;9.60;99.90;;;;;;5072517;28;20461;-66
2024/03/18 04:08:25;;;;;;;1107.30;994.57;;;9.60;99.90;;;;;;5060344;28;20444;-65
2024/03/18 04:10:52;;;;;;;1111.50;998.10;;;9.60;99.90;;;;;;5060756;28;20447;-66
2024/03/18 04:13:19;;;;;;;1112.27;998.73;;;9.60;99.90;;;;;;5063554;28;20498;-66
2024/03/18 04:15:47;;;;;;;1110.30;996.83;;;9.60;99.90;;;;;;5057252;28;20457;-66
2024/03/18 04:18:13;;;;;;;1092.07;977.57;;;9.60;99.90;;;;;;5070695;28;20459;-65
2024/03/18 04:20:41;;;;;;;1116.20;999.90;;;9.60;99.90;;;;;;5057687;28;20506;-66
2024/03/18 04:23:09;;;;;;;1092.27;978.57;;;9.60;99.90;;;;;;5053572;28;20471;-66
2024/03/18 04:25:36;;;;;;;1111.20;995.70;;;9.60;99.90;;;;;;5058842;28;20958;-66
2024/03/18 04:28:07;;;;;;;1088.87;975.33;;;9.60;99.90;;;;;;5069385;28;20450;-66
2024/03/18 04:30:34;;;;;;;1102.20;987.20;;;9.60;99.90;;;;;;5072218;28;20446;-65
2024/03/18 04:33:01;;;;;;;1096.10;982.20;;;9.60;99.90;;;;;;5071685;28;21012;-65
2024/03/18 04:35:28;;;;;;;1108.07;993.27;;;9.50;99.90;;;;;;5072037;28;20809;-66
2024/03/18 04:37:56;;;;;;;1109.57;993.97;;;9.50;99.90;;;;;;5071655;28;20450;-66
2024/03/18 04:40:26;;;;;;;1112.50;998.10;;;9.40;99.90;;;;;;5072017;28;20506;-65
2024/03/18 04:42:54;;;;;;;1126.13;999.90;;;9.40;99.90;;;;;;5071738;28;20481;-65
2024/03/18 04:45:22;;;;;;;1134.27;999.90;;;9.30;99.90;;;;;;5071923;28;20524;-66
2024/03/18 04:47:50;;;;;;;1083.37;966.50;;;9.20;99.90;;;;;;5064204;28;20874;-66
2024/03/18 04:50:19;;;;;;;1088.77;972.23;;;9.20;99.90;;;;;;5063075;28;20499;-65
2024/03/18 04:52:46;;;;;;;1075.13;959.23;;;9.20;99.90;;;;;;5057156;28;20873;-66
2024/03/18 04:55:13;;;;;;;1075.77;958.47;;;9.30;99.90;;;;;;5054240;28;20448;-66
2024/03/18 04:57:42;;;;;;;1075.63;957.33;;;9.30;99.90;;;;;;5071625;28;20450;-66
2024/03/18 05:00:11;;;;;;;1080.07;960.97;;;9.30;99.90;;;;;;5071571;28;20512;-65
2024/03/18 05:02:38;;;;;;;1078.03;963.70;;;9.30;99.90;;;;;;5066030;28;20482;-65
2024/03/18 05:05:06;;;;;;;1072.80;958.73;;;9.30;99.90;;;;;;5061266;28;20465;-66
2024/03/18 05:07:33;;;;;;;1079.93;966.30;;;9.30;99.90;;;;;;5068061;28;20970;-66
2024/03/18 05:10:00;;;;;;;1097.33;983.53;;;9.20;99.90;;;;;;5053581;28;20486;-66
2024/03/18 05:12:27;;;;;;;1095.50;982.77;;;9.10;99.90;;;;;;5060970;28;20513;-66
2024/03/18 05:14:57;;;;;;;1099.43;982.93;;;9.00;99.90;;;;;;5059128;28;20462;-65
2024/03/18 05:17:24;;;;;;;1086.80;970.57;;;8.90;99.90;;;;;;5068086;28;20882;-66
2024/03/18 05:19:51;;;;;;;1084.60;968.40;;;8.80;99.90;;;;;;5059415;28;20451;-66
2024/03/18 05:22:19;;;;;;;1093.77;977.30;;;8.70;99.90;;;;;;5060310;28;20451;-65
2024/03/18 05:24:46;;;;;;;1106.07;990.17;;;8.60;99.90;;;;;;5066513;28;20461;-66
2024/03/18 05:27:13;;;;;;;1099.13;984.33;;;8.50;99.90;;;;;;5070969;28;20837;-65
2024/03/18 05:29:40;;;;;;;1108.60;993.47;;;8.40;99.90;;;;;;5065882;28;20455;-66
2024/03/18 05:32:09;;;;;;;1119.23;999.90;;;8.30;99.90;;;;;;5060989;28;20821;-66
2024/03/18 05:34:37;;;;;;;1096.40;981.27;;;8.30;99.90;;;;;;5057311;28;20481;-65
2024/03/18 05:37:04;;;;;;;1095.07;981.70;;;8.30;99.90;;;;;;5067514;28;20833;-66
2024/03/18 05:39:31;;;;;;;1083.60;967.60;;;8.40;99.90;;;;;;5055751;28;20458;-65
2024/03/18 05:41:58;;;;;;;1086.80;968.30;;;8.50;99.90;;;;;;5071065;28;20565;-65
2024/03/18 05:44:25;;;;;;;1086.87;968.37;;;8.60;99.90;;;;;;5071660;28;20474;-66
2024/03/18 05:46:52;;;;;;;1089.63;973.93;;;8.70;99.90;;;;;;5071335;28;20450;-65
2024/03/18 05:49:20;;;;;;;1097.83;982.23;;;8.80;99.90;;;;;;5071226;28;20465;-66
2024/03/18 05:51:48;;;;;;;1112.10;995.10;;;8.90;99.90;;;;;;5056252;28;20462;-66
2024/03/18 05:54:15;;;;;;;1073.87;956.57;;;8.90;99.90;;;;;;5072551;28;20541;-66
2024/03/18 05:56:42;;;;;;;1080.50;965.33;;;8.90;99.90;;;;;;5074682;28;20562;-66
2024/03/18 05:59:10;;;;;;;1083.10;966.07;;;8.90;99.90;;;;;;5064844;28;20470;-65
2024/03/18 06:01:37;;;;;;;1102.03;983.77;;;8.80;99.90;;;;;;5068403;28;20482;-66
2024/03/18 06:04:04;;;;;;;1098.13;980.47;;;8.70;99.90;;;;;;5065289;28;20471;-65
2024/03/18 06:06:33;;;;;;;1088.17;971.57;;;8.70;99.90;;;;;;5062502;28;21112;-66
2024/03/18 06:09:00;;;;;;;1095.43;978.83;;;8.60;99.90;;;;;;5062485;28;20461;-66
2024/03/18 06:11:27;;;;;;;1090.63;974.93;;;8.60;99.90;;;;;;5054574;28;20945;-65
2024/03/18 06:13:54;;;;;;;1098.20;981.33;;;8.60;99.90;;;;;;5054581;28;20481;-66
2024/03/18 06:16:21;;;;;;;1094.17;977.43;;;8.60;99.90;;;;;;5062641;28;20454;-66
2024/03/18 06:18:49;;;;;;;1068.10;953.33;;;8.80;99.90;;;;;;5061244;28;20454;-66
2024/03/18 06:21:17;;;;;;;1079.27;963.10;;;8.90;99.90;;;;;;5074203;28;20486;-64
2024/03/18 06:23:48;;;;;;;1070.27;954.57;;;9.00;99.90;;;;;;5063235;28;20471;-66
2024/03/18 06:26:14;;;;;;;1062.73;947.30;;;9.10;99.90;;;;;;5072250;28;20835;-67
2024/03/18 06:28:42;;;;;;;1063.30;949.93;;;9.20;99.90;;;;;;5059518;28;20462;-66
2024/03/18 06:31:10;;;;;;;1068.20;954.60;;;9.30;99.90;;;;;;5070760;28;20484;-66
2024/03/18 06:33:37;;;;;;;1053.57;938.80;;;9.40;99.90;;;;;;5068601;28;20510;-65
2024/03/18 06:36:09;;;;;;;1067.67;952.33;;;9.40;99.90;;;;;;5061596;28;20469;-66
2024/03/18 06:38:36;;;;;;;1049.10;934.80;;;9.50;99.90;;;;;;5059260;28;21007;-65
2024/03/18 06:41:05;;;;;;;1062.07;948.37;;;9.50;99.90;;;;;;5074244;28;21009;-67
2024/03/18 06:43:32;;;;;;;1068.63;956.40;;;9.60;99.90;;;;;;5074339;28;20579;-66
2024/03/18 06:45:59;;;;;;;1072.20;961.00;;;9.60;99.90;;;;;;5074794;28;20454;-66
2024/03/18 06:48:26;;;;;;;1079.87;968.00;;;9.60;99.90;;;;;;5061565;28;20558;-64
2024/03/18 06:50:53;;;;;;;1073.30;960.50;;;9.70;99.90;;;;;;5070196;28;20458;-66
2024/03/18 06:53:20;;;;;;;1052.23;939.30;;;9.70;99.90;;;;;;5062160;28;20475;-66
2024/03/18 06:55:47;;;;;;;1034.63;921.93;;;9.70;99.90;;;;;;5053167;28;20462;-66
2024/03/18 06:58:17;;;;;;;1030.10;916.90;;;9.80;99.90;;;;;;5071780;28;20469;-65
2024/03/18 07:00:44;;;;;;;1032.13;919.73;;;9.90;99.90;;;;;;5073617;28;20478;-66
2024/03/18 07:03:11;;;;;;;1030.83;918.90;;;10.00;99.90;;;;;;5073532;28;20528;-65
2024/03/18 07:05:38;;;;;;;1047.50;936.67;;;10.20;99.90;;;;;;5072529;28;20457;-65
2024/03/18 07:08:05;;;;;;;1048.87;938.20;;;10.30;99.90;;;;;;5063676;28;20840;-66
2024/03/18 07:10:32;;;;;;;1055.17;943.87;;;10.40;99.90;;;;;;5053104;28;20444;-66
2024/03/18 07:13:00;;;;;;;1057.03;945.50;;;10.50;99.90;;;;;;5069912;28;20470;-66
2024/03/18 07:15:28;;;;;;;1063.10;952.30;;;10.70;99.90;;;;;;5072352;28;20516;-66
2024/03/18 07:17:54;;;;;;;1063.77;954.43;;;10.80;99.90;;;;;;5072942;28;20451;-65
2024/03/18 07:20:21;;;;;;;1055.73;946.67;;;10.90;99.90;;;;;;5073353;28;20454;-66
2024/03/18 07:22:48;;;;;;;1071.30;963.80;;;11.10;99.90;;;;;;5073414;28;20471;-66
2024/03/18 07:25:18;;;;;;;1052.87;947.00;;;11.20;99.90;;;;;;5062720;28;20455;-66
2024/03/18 07:27:46;;;;;;;1042.20;940.77;;;11.30;99.90;;;;;;5052647;28;20458;-66
2024/03/18 07:30:14;;;;;;;1058.77;959.63;;;11.30;99.90;;;;;;5071147;28;20473;-66
2024/03/18 07:32:42;;;;;;;1034.67;937.50;;;11.20;99.90;;;;;;5073088;28;20477;-66
2024/03/18 07:35:12;;;;;;;1026.30;930.10;;;11.30;99.90;;;;;;5071133;28;20450;-66
2024/03/18 07:37:39;;;;;;;1001.87;906.57;;;11.30;99.90;;;;;;5065647;28;20483;-66
2024/03/18 07:40:08;;;;;;;981.03;887.90;;;11.30;99.90;;;;;;5071854;28;20976;-66
2024/03/18 07:42:35;;;;;;;980.80;885.70;;;11.50;99.90;;;;;;5057784;28;20831;-66
2024/03/18 07:45:02;;;;;;;962.97;872.80;;;11.60;99.90;;;;;;5056070;28;20588;-66
2024/03/18 07:47:29;;;;;;;949.80;862.30;;;11.70;99.90;;;;;;5072339;28;20458;-66
2024/03/18 07:49:57;;;;;;;934.90;848.10;;;11.80;99.90;;;;;;5056464;28;20848;-66
2024/03/18 07:52:24;;;;;;;930.63;846.40;;;12.10;99.90;;;;;;5056370;28;20451;-65
2024/03/18 07:54:50;;;;;;;896.33;817.33;;;12.20;99.90;;;;;;5054814;28;20447;-66
2024/03/18 07:57:17;;;;;;;891.97;815.97;;;12.30;99.90;;;;;;5071269;28;20462;-66
2024/03/18 07:59:44;;;;;;;853.10;783.57;;;12.50;99.90;;;;;;5072489;28;20897;-65
2024/03/18 08:02:11;;;;;;;848.13;783.30;;;12.60;99.90;;;;;;5062389;28;20859;-65
2024/03/18 08:04:38;;;;;;;846.23;784.03;;;12.70;99.90;;;;;;5066000;28;20478;-66
2024/03/18 08:07:06;;;;;;;835.23;776.03;;;12.60;99.90;;;;;;5063001;28;20943;-64
2024/03/18 08:09:32;;;;;;;845.60;788.00;;;12.70;99.90;;;;;;5052627;28;20470;-64
2024/03/18 08:12:00;;;;;;;846.10;790.07;;;12.60;99.90;;;;;;5053089;28;20453;-66
2024/03/18 08:14:26;;;;;;;843.30;789.50;;;12.70;99.90;;;;;;5052605;28;20561;-67
2024/03/18 08:16:54;;;;;;;838.70;787.33;;;12.70;99.90;;;;;;5051851;28;20458;-67
2024/03/18 08:19:21;;;;;;;842.43;792.63;;;12.80;99.90;;;;;;5060726;28;20454;-67
2024/03/18 08:21:48;;;;;;;848.07;798.93;;;12.90;99.90;;;;;;5059048;28;20535;-67
2024/03/18 08:24:16;;;;;;;838.57;791.97;;;13.00;99.90;;;;;;5072147;28;20853;-67
2024/03/18 08:26:42;;;;;;;835.63;788.33;;;13.10;99.90;;;;;;5065501;28;20447;-67
2024/03/18 08:29:09;;;;;;;824.70;781.27;;;13.20;99.90;;;;;;5062171;28;20981;-66
2024/03/18 08:31:36;;;;;;;759.80;723.63;;;13.40;99.90;;;;;;5072291;28;20447;-66
2024/03/18 08:34:03;;;;;;;633.63;608.10;;;13.60;99.90;;;;;;5063007;28;20479;-66
2024/03/18 08:36:30;;;;;;;574.87;552.47;;;13.60;99.90;;;;;;5060131;28;20458;-66
2024/03/18 08:38:57;;;;;;;459.90;443.37;;;13.50;99.90;;;;;;5051811;28;20938;-66
2024/03/18 08:41:25;;;;;;;359.83;347.50;;;13.50;99.90;;;;;;5044084;28;21014;-67
2024/03/18 08:43:52;;;;;;;409.10;394.90;;;13.60;99.90;;;;;;5068030;28;20474;-67
2024/03/18 08:46:19;;;;;;;433.17;417.10;;;13.60;99.90;;;;;;5059899;28;20541;-67
2024/03/18 08:48:46;;;;;;;407.90;392.90;;;13.70;99.90;;;;;;5051063;28;20458;-66
2024/03/18 08:51:13;;;;;;;412.37;397.47;;;13.70;99.90;;;;;;5060098;28;20571;-66
2024/03/18 08:53:40;;;;;;;308.93;298.37;;;13.70;99.90;;;;;;5059786;28;20846;-67
2024/03/18 08:56:07;;;;;;;319.83;308.83;;;13.80;99.90;;;;;;5060079;28;20954;-66
2024/03/18 08:58:35;;;;;;;287.20;276.97;;;13.80;99.90;;;;;;5056822;28;20450;-66
2024/03/18 09:01:02;;;;;;;276.07;266.13;;;13.80;99.90;;;;;;5071882;28;20485;-66
2024/03/18 09:03:28;;;;;;;236.60;228.03;;;13.90;99.90;;;;;;5071648;28;20583;-67
2024/03/18 09:05:55;;;;;;;114.53;109.83;;;14.20;99.90;;;;;;5071666;28;20478;-67
2024/03/18 09:08:22;;;;;;;74.47;70.93;;;14.30;99.90;;;;;;5071279;28;20462;-66
2024/03/18 09:10:49;;;;;;;58.33;55.23;;;14.60;99.90;;;;;;5056481;28;20462;-66
2024/03/18 09:13:16;;;;;;;28.57;26.47;;;15.20;99.90;;;;;;5070973;28;20470;-66
2024/03/18 09:15:45;;;;;;;16.60;14.63;;;15.50;99.90;;;;;;5071744;28;20446;-66
2024/03/18 09:18:11;;;;;;;12.33;9.87;;;15.80;99.90;;;;;;5061280;28;20546;-66
2024/03/18 09:20:39;;;;;;;12.23;6.80;;;16.30;99.90;;;;;;5065287;28;20480;-66
2024/03/18 09:23:08;;;;;;;10.87;6.50;;;16.30;99.90;;;;;;5053493;28;20483;-65
2024/03/18 09:25:35;;;;;;;9.60;5.33;;;16.60;99.90;;;;;;5056876;28;20450;-66
2024/03/18 09:28:02;;;;;;;9.53;5.20;;;16.70;99.90;;;;;;5072249;28;20450;-66
2024/03/18 09:30:30;;;;;;;9.73;5.50;;;16.70;99.90;;;;;;5071389;28;20447;-66
2024/03/18 09:32:59;;;;;;;9.97;4.90;;;16.60;99.90;;;;;;5063738;28;20515;-66
2024/03/18 09:35:26;;;;;;;11.37;5.97;;;16.60;99.90;;;;;;5063167;28;20829;-66
2024/03/18 09:37:52;;;;;;;11.60;4.53;;;16.70;97.20;;;;;;5071057;28;20971;-66
2024/03/18 09:40:19;;;;;;;11.13;4.50;;;16.50;93.70;;;;;;5064134;28;20847;-67
2024/03/18 09:42:46;;;;;;;13.60;4.90;;;16.90;93.80;;;;;;5055206;28;20923;-66
2024/03/18 09:45:16;;;;;;;10.50;4.83;;;16.80;93.80;;;;;;5073737;28;20450;-67
2024/03/18 09:47:45;;;;;;;10.87;3.50;;;16.90;93.80;;;;;;5074744;28;20473;-66
2024/03/18 09:50:16;;;;;;;12.00;3.60;;;16.80;90.50;;;;;;5073160;28;20450;-67
2024/03/18 09:52:43;;;;;;;13.03;4.47;;;16.50;93.70;;;;;;5061399;28;20466;-67
2024/03/18 09:55:22;;;;;;;9.67;4.27;;;16.50;93.70;;;;;;5074086;28;20458;-66
2024/03/18 09:57:50;;;;;;;12.60;5.93;;;16.00;93.40;;;;;;5063201;28;20484;-67
2024/03/18 10:00:19;;;;;;;10.87;3.60;;;15.80;93.40;;;;;;5071971;28;20529;-67
2024/03/18 10:02:46;;;;;;;12.07;3.20;;;15.70;93.30;;;;;;5061598;28;20854;-66
2024/03/18 10:05:14;;;;;;;8.60;2.40;;;15.60;93.30;;;;;;5075393;28;20541;-67
2024/03/18 10:07:43;;;;;;;8.73;3.50;;;15.90;90.30;;;;;;5074382;28;20461;-67
2024/03/18 10:10:16;;;;;;;9.33;3.20;;;16.20;93.50;;;;;;5058333;28;20451;-66
2024/03/18 10:12:43;;;;;;;13.90;3.13;;;16.20;90.10;;;;;;5074445;28;20488;-66
2024/03/18 10:15:13;;;;;;;9.93;3.00;;;16.30;90.20;;;;;;5073282;28;21024;-67
2024/03/18 10:17:41;;;;;;;7.50;3.40;;;16.00;86.30;;;;;;5060209;28;20454;-67
2024/03/18 10:20:18;;;;;;;8.50;3.97;;;16.20;92.20;;;;;;5064546;28;20589;-66
2024/03/18 10:22:46;;;;;;;13.53;4.57;;;16.30;87.00;;;;;;5054442;28;20490;-66
2024/03/18 10:25:15;;;;;;;10.07;4.77;;;16.70;93.70;;;;;;5072720;28;20536;-67
2024/03/18 10:27:43;;;;;;;13.30;4.90;;;17.40;83.60;;;;;;5070365;28;20454;-66
2024/03/18 10:30:12;;;;;;;9.83;3.97;;;18.00;84.20;;;;;;5055337;28;20457;-66
2024/03/18 10:32:40;;;;;;;7.00;2.60;;;18.40;68.70;;;;;;5055331;28;20537;-66
2024/03/18 10:35:18;;;;;;;14.47;3.63;;;18.30;68.60;;;;;;5048711;28;20455;-66
2024/03/18 10:37:53;;;;;;;10.20;3.57;;;18.00;68.30;;;;;;5044762;28;20459;-66
2024/03/18 10:40:30;;;;;;;13.23;3.93;;;17.80;68.10;;;;;;5053587;28;20458;-66
2024/03/18 10:43:01;;;;;;;9.33;2.70;;;18.00;60.80;;;;;;5045475;28;20510;-66
2024/03/18 10:45:31;;;;;;;8.10;2.63;;;18.80;60.70;;;;;;5040511;28;20443;-66
2024/03/18 10:47:59;;;;;;;8.43;3.73;;;19.10;52.40;;;;;;5047372;28;20455;-66
2024/03/18 10:50:26;;;;;;;8.63;3.07;;;18.10;51.50;;;;;;5052748;28;20462;-66
2024/03/18 10:52:55;;;;;;;10.53;3.50;;;17.30;59.70;;;;;;5054065;28;20470;-66
2024/03/18 10:55:23;;;;;;;10.60;3.50;;;17.40;59.50;;;;;;5053935;28;20457;-65
2024/03/18 10:57:52;;;;;;;14.30;3.87;;;17.20;67.30;;;;;;5053360;28;20825;-65
2024/03/18 11:00:19;;;;;;;11.40;3.77;;;16.90;67.30;;;;;;5053302;28;20513;-66
2024/03/18 11:03:00;;;;;;;8.20;3.43;;;15.90;66.40;;;;;;5053564;28;20881;-66
2024/03/18 11:05:28;;;;;;;11.87;3.70;;;15.70;74.20;;;;;;5045527;28;20474;-64
2024/03/18 11:07:59;;;;;;;9.70;3.97;;;15.50;66.10;;;;;;5053212;28;20454;-66
2024/03/18 11:10:29;;;;;;;8.97;3.60;;;15.70;66.20;;;;;;5045788;28;20451;-65
2024/03/18 11:12:55;;;;;;;8.50;3.40;;;15.70;71.20;;;;;;5053490;28;20470;-66
2024/03/18 11:15:27;;;;;;;9.87;3.77;;;16.50;66.90;;;;;;5053234;28;20447;-66
2024/03/18 11:17:54;;;;;;;9.10;4.20;;;16.90;66.80;;;;;;5061025;28;20450;-65
2024/03/18 11:20:21;;;;;;;8.03;3.43;;;17.10;60.30;;;;;;5061854;28;20448;-66
2024/03/18 11:22:50;;;;;;;9.50;3.20;;;16.40;58.70;;;;;;5053149;28;20489;-66
2024/03/18 11:25:21;;;;;;;10.17;4.27;;;16.60;58.70;;;;;;5053361;28;20451;-66
2024/03/18 11:27:50;;;;;;;12.70;3.70;;;17.30;59.30;;;;;;5052941;28;20493;-65
2024/03/18 11:30:33;;;;;;;10.27;4.30;;;18.20;51.50;;;;;;5053432;28;20447;-65
2024/03/18 11:33:09;;;;;;;12.13;4.40;;;19.00;44.40;;;;;;5053333;28;20982;-65
2024/03/18 11:35:37;;;;;;;8.00;3.23;;;19.60;35.00;;;;;;5053252;28;20450;-65
2024/03/18 11:38:05;;;;;;;9.30;3.57;;;20.20;35.50;;;;;;5052875;28;20505;-65
2024/03/18 11:40:37;;;;;;;10.43;3.50;;;20.50;27.40;;;;;;5053209;28;20807;-68
2024/03/18 11:43:04;;;;;;;12.37;4.10;;;20.10;27.10;;;;;;5052943;28;20479;-67
2024/03/18 11:45:31;;;;;;;11.87;4.30;;;20.40;26.30;;;;;;5053311;28;20447;-65
2024/03/18 11:48:04;;;;;;;7.83;3.43;;;20.40;20.00;;;;;;5052839;28;20455;-65
2024/03/18 11:50:32;;;;;;;10.90;4.30;;;20.10;19.80;;;;;;5052442;28;20452;-65
2024/03/18 11:52:59;;;;;;;9.30;3.63;;;19.90;19.60;;;;;;5052749;28;20471;-65
2024/03/18 11:55:26;;;;;;;9.03;3.23;;;19.80;26.70;;;;;;5053118;28;20474;-66
2024/03/18 11:57:57;;;;;;;7.40;3.50;;;20.30;20.10;;;;;;5052843;28;20451;-65
2024/03/18 12:00:24;;;;;;;11.50;3.60;;;20.60;20.10;;;;;;5044495;28;20454;-65
2024/03/18 12:02:50;;;;;;;9.70;4.10;;;21.00;13.00;;;;;;5067849;28;20481;-64
2024/03/18 12:05:17;;;;;;;11.27;3.80;;;21.30;12.20;;;;;;5072230;28;20458;-65
2024/03/18 12:07:45;;;;;;;10.53;4.60;;;20.30;10.10;;;;;;5057546;28;20455;-65
2024/03/18 12:10:18;;;;;;;9.07;4.13;;;20.50;18.10;;;;;;5068893;28;20520;-66
2024/03/18 12:12:45;;;;;;;10.87;2.93;;;20.60;12.50;;;;;;5052649;28;20468;-68
2024/03/18 12:15:13;;;;;;;8.80;3.10;;;20.70;12.70;;;;;;5052595;28;20979;-66
2024/03/18 12:17:42;;;;;;;9.97;3.37;;;20.90;5.20;;;;;;5052138;28;20832;-67